createdAt,value
2018-07-08T00:03:18.402Z,4.33
2018-07-08T00:07:21.313Z,4.87
2018-07-08T00:11:23.692Z,5.00
2018-07-08T00:15:26.132Z,5.87
2018-07-08T00:19:28.427Z,4.70
2018-07-08T00:23:30.680Z,5.30
2018-07-08T00:27:33.239Z,4.30
2018-07-08T00:31:35.431Z,4.80
2018-07-08T00:35:37.807Z,5.37
2018-07-08T00:39:40.049Z,5.87
2018-07-08T00:43:42.319Z,5.27
2018-07-08T00:47:45.192Z,4.77
2018-07-08T00:51:47.460Z,5.47
2018-07-08T00:55:49.663Z,5.20
2018-07-08T00:59:51.945Z,5.50
2018-07-08T01:03:54.094Z,4.87
2018-07-08T01:07:56.441Z,4.20
2018-07-08T01:11:58.639Z,5.37
2018-07-08T01:16:00.792Z,5.87
2018-07-08T01:20:03.078Z,6.53
2018-07-08T01:24:05.588Z,5.93
2018-07-08T01:28:07.780Z,5.67
2018-07-08T01:32:10.005Z,5.63
2018-07-08T01:36:12.263Z,6.17
2018-07-08T01:40:14.446Z,6.03
2018-07-08T01:44:16.677Z,6.30
2018-07-08T01:48:18.981Z,6.10
2018-07-08T01:52:22.775Z,5.83
2018-07-08T01:56:25.511Z,6.00
2018-07-08T02:00:27.751Z,7.20
2018-07-08T02:04:29.951Z,5.93
2018-07-08T02:08:32.199Z,6.03
2018-07-08T02:12:34.361Z,6.30
2018-07-08T02:16:36.528Z,5.87
2018-07-08T02:20:38.803Z,6.73
2018-07-08T02:24:41.122Z,7.57
2018-07-08T02:28:43.443Z,6.57
2018-07-08T02:32:45.598Z,6.67
2018-07-08T02:36:47.825Z,6.93
2018-07-08T02:40:50.094Z,6.70
2018-07-08T02:44:52.785Z,5.87
2018-07-08T02:48:55.046Z,6.93
2018-07-08T02:52:57.211Z,6.50
2018-07-08T02:56:59.982Z,6.10
2018-07-08T03:01:02.880Z,5.00
2018-07-08T03:05:05.123Z,6.13
2018-07-08T03:09:08.336Z,6.13
2018-07-08T03:13:10.521Z,7.67
2018-07-08T03:17:12.697Z,6.43
2018-07-08T03:21:14.967Z,6.83
2018-07-08T03:25:17.877Z,6.83
2018-07-08T03:29:20.215Z,6.47
2018-07-08T03:33:22.515Z,6.97
2018-07-08T03:37:24.744Z,6.63
2018-07-08T03:41:26.950Z,5.60
2018-07-08T03:45:29.255Z,6.27
2018-07-08T03:49:31.448Z,6.03
2018-07-08T03:53:34.038Z,6.50
2018-07-08T03:57:36.214Z,6.10
2018-07-08T04:01:39.331Z,5.17
2018-07-08T04:05:42.211Z,4.90
2018-07-08T04:09:44.500Z,5.43
2018-07-08T04:13:46.811Z,5.27
2018-07-08T04:17:53.871Z,4.83
2018-07-08T04:21:56.056Z,5.37
2018-07-08T04:25:58.443Z,4.83
2018-07-08T04:30:00.644Z,4.83
2018-07-08T04:34:02.883Z,4.80
2018-07-08T04:38:05.758Z,5.60
2018-07-08T04:42:08.671Z,6.73
2018-07-08T04:46:11.071Z,5.53
2018-07-08T04:50:13.263Z,4.70
2018-07-08T04:54:16.203Z,5.97
2018-07-08T04:58:18.416Z,3.90
2018-07-08T05:02:20.598Z,4.63
2018-07-08T05:06:22.775Z,5.53
2018-07-08T05:10:25.040Z,5.07
2018-07-08T05:14:27.810Z,5.30
2018-07-08T05:18:29.978Z,4.57
2018-07-08T05:22:32.201Z,4.77
2018-07-08T05:26:34.417Z,4.63
2018-07-08T05:30:37.326Z,4.40
2018-07-08T05:34:39.539Z,4.57
2018-07-08T05:38:41.779Z,3.90
2018-07-08T05:42:43.971Z,2.90
2018-07-08T05:46:46.141Z,2.97
2018-07-08T05:50:48.359Z,2.83
2018-07-08T05:54:50.632Z,3.33
2018-07-08T05:58:52.944Z,3.30
2018-07-08T06:02:55.180Z,3.10
2018-07-08T06:06:57.914Z,2.73
2018-07-08T06:11:00.182Z,2.33
2018-07-08T06:15:03.502Z,2.93
2018-07-08T06:19:05.763Z,2.90
2018-07-08T06:23:08.623Z,2.37
2018-07-08T06:27:11.496Z,2.47
2018-07-08T06:31:13.700Z,2.90
2018-07-08T06:35:15.937Z,2.80
2018-07-08T06:39:18.496Z,2.67
2018-07-08T06:43:20.715Z,3.17
2018-07-08T06:48:52.544Z,2.70
2018-07-08T06:52:54.768Z,3.33
2018-07-08T06:56:57.007Z,3.50
2018-07-08T07:00:59.236Z,2.80
2018-07-08T07:05:01.609Z,3.17
2018-07-08T07:09:06.316Z,2.83
2018-07-08T07:13:08.552Z,3.57
2018-07-08T07:17:10.869Z,2.93
2018-07-08T07:21:13.806Z,3.03
2018-07-08T07:25:15.971Z,2.90
2018-07-08T07:29:18.249Z,3.10
2018-07-08T07:33:20.565Z,2.30
2018-07-08T07:37:22.820Z,3.53
2018-07-08T07:41:25.120Z,2.50
2018-07-08T07:45:27.363Z,3.13
2018-07-08T07:49:29.587Z,2.80
2018-07-08T07:53:31.954Z,2.40
2018-07-08T07:57:34.139Z,3.07
2018-07-08T08:01:36.830Z,2.90
2018-07-08T08:05:39.143Z,4.03
2018-07-08T08:09:41.383Z,2.67
2018-07-08T08:13:57.822Z,3.53
2018-07-08T08:18:00.011Z,2.83
2018-07-08T08:22:02.788Z,2.60
2018-07-08T08:26:05.019Z,2.87
2018-07-08T08:30:07.377Z,2.50
2018-07-08T08:35:13.956Z,3.63
2018-07-08T08:39:16.156Z,2.77
2018-07-08T08:43:18.439Z,2.77
2018-07-08T08:47:20.966Z,2.83
2018-07-08T08:51:23.284Z,2.23
2018-07-08T08:55:25.506Z,2.43
2018-07-08T08:59:27.739Z,2.60
2018-07-08T09:03:29.927Z,2.77
2018-07-08T09:07:32.131Z,2.07
2018-07-08T09:11:34.419Z,1.90
2018-07-08T09:15:36.589Z,2.07
2018-07-08T09:19:39.415Z,1.73
2018-07-08T09:23:41.675Z,1.57
2018-07-08T09:27:44.607Z,1.40
2018-07-08T09:31:46.854Z,1.80
2018-07-08T09:35:49.625Z,1.27
2018-07-08T09:39:51.859Z,1.63
2018-07-08T09:43:54.681Z,1.23
2018-07-08T09:47:56.949Z,1.97
2018-07-08T09:51:59.283Z,1.67
2018-07-08T09:56:02.520Z,1.50
2018-07-08T10:00:05.273Z,1.67
2018-07-08T10:04:09.147Z,1.53
2018-07-08T10:08:11.436Z,1.40
2018-07-08T10:12:13.656Z,1.80
2018-07-08T10:16:15.938Z,1.37
2018-07-08T10:20:18.111Z,1.10
2018-07-08T10:24:20.355Z,1.07
2018-07-08T10:28:23.648Z,1.17
2018-07-08T10:32:25.866Z,1.60
2018-07-08T10:36:28.135Z,0.80
2018-07-08T10:40:30.692Z,1.27
2018-07-08T10:44:32.909Z,1.43
2018-07-08T10:48:35.206Z,1.17
2018-07-08T10:52:37.473Z,1.20
2018-07-08T10:56:39.872Z,1.23
2018-07-08T11:00:42.156Z,1.20
2018-07-08T11:04:45.134Z,1.20
2018-07-08T11:08:47.431Z,1.17
2018-07-08T11:12:49.667Z,1.00
2018-07-08T11:16:52.058Z,1.10
2018-07-08T11:20:54.276Z,1.90
2018-07-08T11:24:56.766Z,1.30
2018-07-08T11:28:59.294Z,1.03
2018-07-08T11:33:01.568Z,0.90
2018-07-08T11:37:03.827Z,1.57
2018-07-08T11:41:06.136Z,1.50
2018-07-08T11:45:08.405Z,1.73
2018-07-08T11:49:10.656Z,1.27
2018-07-08T11:53:12.879Z,1.63
2018-07-08T11:57:15.117Z,2.00
2018-07-08T12:01:17.451Z,1.70
2018-07-08T12:05:19.644Z,1.47
2018-07-08T12:09:21.888Z,1.67
2018-07-08T12:13:24.082Z,1.47
2018-07-08T12:17:26.311Z,8.90
2018-07-08T12:21:28.501Z,4.10
2018-07-08T12:25:30.713Z,11.43
2018-07-08T12:29:33.429Z,1.50
2018-07-08T12:33:35.795Z,1.77
2018-07-08T12:37:38.116Z,1.23
2018-07-08T12:41:40.985Z,0.97
2018-07-08T12:45:43.196Z,1.30
2018-07-08T12:49:45.515Z,1.33
2018-07-08T12:53:47.755Z,1.67
2018-07-08T12:57:49.982Z,1.07
2018-07-08T13:01:52.167Z,1.10
2018-07-08T13:05:54.374Z,1.20
2018-07-08T13:09:56.757Z,1.43
2018-07-08T13:13:59.319Z,1.97
2018-07-08T13:18:01.497Z,1.50
2018-07-08T13:22:09.990Z,1.50
2018-07-08T13:26:12.683Z,1.43
2018-07-08T13:30:15.446Z,1.10
2018-07-08T13:34:17.642Z,1.10
2018-07-08T13:38:19.915Z,0.90
2018-07-08T13:42:22.134Z,1.33
2018-07-08T13:46:24.344Z,1.33
2018-07-08T13:50:26.555Z,2.03
2018-07-08T13:54:28.778Z,1.50
2018-07-08T13:58:31.465Z,1.10
2018-07-08T14:02:33.852Z,1.60
2018-07-08T14:06:36.260Z,1.20
2018-07-08T14:10:39.145Z,1.30
2018-07-08T14:14:42.851Z,1.57
2018-07-08T14:18:45.063Z,1.03
2018-07-08T14:22:47.333Z,1.03
2018-07-08T14:26:49.543Z,1.30
2018-07-08T14:30:52.493Z,0.90
2018-07-08T14:34:54.745Z,1.30
2018-07-08T14:38:57.044Z,1.03
2018-07-08T14:42:59.238Z,1.77
2018-07-08T14:47:01.449Z,1.30
2018-07-08T14:51:03.643Z,1.37
2018-07-08T14:55:05.876Z,1.00
2018-07-08T14:59:08.531Z,0.90
2018-07-08T15:03:10.994Z,1.10
2018-07-08T15:07:13.261Z,0.87
2018-07-08T15:11:15.979Z,1.00
2018-07-08T15:15:18.267Z,1.50
2018-07-08T15:19:20.472Z,1.53
2018-07-08T15:23:23.376Z,1.00
2018-07-08T15:27:25.664Z,1.63
2018-07-08T15:31:27.880Z,1.20
2018-07-08T15:35:30.123Z,1.00
2018-07-08T15:39:32.474Z,2.97
2018-07-08T15:43:34.644Z,1.20
2018-07-08T15:47:36.880Z,1.03
2018-07-08T15:51:39.096Z,1.00
2018-07-08T15:55:41.281Z,1.10
2018-07-08T15:59:43.672Z,1.37
2018-07-08T16:03:45.943Z,1.00
2018-07-08T16:07:48.251Z,1.37
2018-07-08T16:11:50.529Z,0.80
2018-07-08T16:15:52.784Z,0.93
2018-07-08T16:19:55.007Z,0.90
2018-07-08T16:23:57.204Z,1.40
2018-07-08T16:27:59.935Z,0.93
2018-07-08T16:32:03.477Z,1.07
2018-07-08T16:36:05.694Z,1.00
2018-07-08T16:40:08.011Z,0.97
2018-07-08T16:44:10.196Z,1.00
2018-07-08T16:48:12.730Z,1.10
2018-07-08T16:52:14.946Z,1.10
2018-07-08T16:56:17.278Z,1.10
2018-07-08T17:00:19.457Z,1.17
2018-07-08T17:04:21.789Z,1.47
2018-07-08T17:08:24.228Z,0.70
2018-07-08T17:12:26.334Z,1.10
2018-07-08T17:16:28.550Z,1.13
2018-07-08T17:20:30.781Z,0.90
2018-07-08T17:24:33.181Z,1.00
2018-07-08T17:28:35.368Z,1.13
2018-07-08T17:32:37.695Z,1.20
2018-07-08T17:36:40.213Z,1.80
2018-07-08T17:40:42.406Z,0.93
2018-07-08T17:44:44.658Z,0.70
2018-07-08T17:48:46.966Z,1.10
2018-07-08T17:52:49.392Z,1.07
2018-07-08T17:56:51.655Z,0.90
2018-07-08T18:00:53.936Z,1.20
2018-07-08T18:04:56.131Z,1.00
2018-07-08T18:08:58.437Z,1.20
2018-07-08T18:13:00.686Z,1.70
2018-07-08T18:17:02.948Z,1.00
2018-07-08T18:21:05.221Z,1.20
2018-07-08T18:25:07.671Z,1.17
2018-07-08T18:29:10.816Z,0.97
2018-07-08T18:33:13.089Z,1.47
2018-07-08T18:37:15.549Z,1.00
2018-07-08T18:41:17.746Z,1.37
2018-07-08T18:45:20.025Z,1.53
2018-07-08T18:49:22.256Z,0.67
2018-07-08T18:53:24.556Z,1.07
2018-07-08T18:57:26.747Z,1.07
2018-07-08T19:01:29.522Z,1.10
2018-07-08T19:05:32.279Z,1.20
2018-07-08T19:09:34.493Z,1.50
2018-07-08T19:13:36.782Z,1.50
2018-07-08T19:17:39.148Z,1.67
2018-07-08T19:21:41.827Z,1.20
2018-07-08T19:25:44.392Z,1.50
2018-07-08T19:29:46.650Z,1.53
2018-07-08T19:33:48.842Z,1.40
2018-07-08T19:37:51.658Z,1.57
2018-07-08T19:41:53.909Z,1.40
2018-07-08T19:45:56.143Z,1.50
2018-07-08T19:49:58.448Z,1.10
2018-07-08T19:54:01.240Z,1.17
2018-07-08T19:58:03.452Z,1.60
2018-07-08T20:02:05.681Z,1.17
2018-07-08T20:06:07.994Z,1.20
2018-07-08T20:10:10.250Z,1.20
2018-07-08T20:14:12.430Z,1.17
2018-07-08T20:18:14.674Z,1.30
2018-07-08T20:22:16.884Z,0.80
2018-07-08T20:26:19.537Z,0.87
2018-07-08T20:30:21.888Z,1.30
2018-07-08T20:34:24.240Z,1.93
2018-07-08T20:38:26.423Z,2.03
2018-07-08T20:42:28.790Z,1.97
2018-07-08T20:46:31.048Z,1.83
2018-07-08T20:50:33.335Z,1.90
2018-07-08T20:54:35.591Z,1.93
2018-07-08T20:58:37.777Z,1.87
2018-07-08T21:02:39.998Z,1.97
2018-07-08T21:06:42.327Z,1.90
2018-07-08T21:10:44.595Z,1.70
2018-07-08T21:14:46.822Z,1.80
2018-07-08T21:18:49.232Z,2.30
2018-07-08T21:22:52.063Z,1.70
2018-07-08T21:26:54.239Z,2.07
2018-07-08T21:30:56.545Z,1.80
2018-07-08T21:34:58.901Z,1.30
2018-07-08T21:39:01.141Z,1.83
2018-07-08T21:43:03.394Z,1.70
2018-07-08T21:47:05.703Z,2.07
2018-07-08T21:51:07.911Z,1.93
2018-07-08T21:55:10.042Z,2.37
2018-07-08T21:59:12.220Z,2.80
2018-07-08T22:03:14.503Z,2.10
2018-07-08T22:07:24.008Z,2.60
2018-07-08T22:11:26.208Z,2.17
2018-07-08T22:15:28.500Z,2.40
2018-07-08T22:19:30.608Z,2.50
2018-07-08T22:23:33.195Z,1.80
2018-07-08T22:27:35.462Z,2.33
2018-07-08T22:31:37.694Z,1.77
2018-07-08T22:35:39.909Z,1.90
2018-07-08T22:39:42.148Z,2.03
2018-07-08T22:43:44.462Z,2.10
2018-07-08T22:47:46.624Z,2.13
2018-07-08T22:51:48.800Z,1.87
2018-07-08T22:55:51.005Z,2.00
2018-07-08T23:00:04.602Z,2.20
2018-07-08T23:04:07.129Z,2.47
2018-07-08T23:08:09.331Z,2.50
2018-07-08T23:12:11.633Z,2.60
2018-07-08T23:16:14.278Z,2.20
2018-07-08T23:20:16.436Z,2.50
2018-07-08T23:24:18.588Z,2.23
2018-07-08T23:28:21.702Z,3.10
2018-07-08T23:32:23.971Z,2.83
2018-07-08T23:36:26.134Z,2.77
2018-07-08T23:40:28.305Z,2.13
2018-07-08T23:44:30.547Z,2.03
2018-07-08T23:48:32.989Z,2.13
2018-07-08T23:52:35.239Z,2.40
2018-07-08T23:56:37.468Z,2.17
